createdAt,value
2022-11-01T00:00:02.288Z,85.19
2022-11-01T00:02:32.407Z,85.31
2022-11-01T00:05:03.525Z,84.70
2022-11-01T00:07:33.470Z,84.42
2022-11-01T00:10:03.521Z,85.21
2022-11-01T00:12:36.053Z,84.55
2022-11-01T00:15:06.419Z,84.66
2022-11-01T00:17:36.290Z,84.53
2022-11-01T00:20:09.337Z,84.75
2022-11-01T00:22:39.085Z,84.67
2022-11-01T00:25:09.803Z,84.67
2022-11-01T00:27:42.160Z,84.97
2022-11-01T00:30:12.945Z,86.39
2022-11-01T00:32:42.693Z,85.81
2022-11-01T00:35:12.758Z,85.59
2022-11-01T00:37:42.758Z,86.05
2022-11-01T00:40:14.470Z,85.90
2022-11-01T00:42:47.050Z,86.47
2022-11-01T00:45:17.449Z,87.50
2022-11-01T00:47:49.260Z,89.96
2022-11-01T00:50:19.363Z,89.00
2022-11-01T00:52:49.201Z,87.37
2022-11-01T00:55:19.388Z,88.89
2022-11-01T00:57:51.714Z,88.93
2022-11-01T01:00:22.049Z,87.87
2022-11-01T01:02:51.792Z,88.34
2022-11-01T01:05:22.230Z,88.30
2022-11-01T01:07:52.055Z,88.25
2022-11-01T01:10:22.173Z,88.24
2022-11-01T01:12:54.705Z,87.92
2022-11-01T01:15:24.876Z,87.59
2022-11-01T01:17:55.029Z,87.38
2022-11-01T01:20:25.492Z,86.88
2022-11-01T01:22:55.779Z,86.47
2022-11-01T01:25:26.661Z,86.88
2022-11-01T01:27:59.419Z,86.86
2022-11-01T01:30:29.638Z,87.63
2022-11-01T01:32:59.442Z,88.24
2022-11-01T01:35:29.533Z,91.00
2022-11-01T01:38:02.274Z,89.81
2022-11-01T01:40:32.602Z,88.33
2022-11-01T01:43:05.140Z,87.61
2022-11-01T01:45:38.998Z,87.68
2022-11-01T01:48:15.198Z,87.32
2022-11-01T01:50:51.393Z,87.16
2022-11-01T01:53:26.533Z,87.40
2022-11-01T01:56:00.343Z,88.11
2022-11-01T01:58:35.667Z,90.04
2022-11-01T02:01:05.978Z,88.93
2022-11-01T02:03:38.333Z,89.84
2022-11-01T02:06:12.925Z,91.20
2022-11-01T02:08:45.848Z,90.44
2022-11-01T02:11:17.661Z,88.76
2022-11-01T02:13:50.559Z,88.31
2022-11-01T02:16:38.117Z,88.36
2022-11-01T02:19:45.223Z,88.32
2022-11-01T02:22:20.639Z,88.50
2022-11-01T02:25:11.853Z,91.03
2022-11-01T02:28:01.153Z,91.22
2022-11-01T02:30:40.833Z,92.11
2022-11-01T02:33:23.553Z,91.10
2022-11-01T02:36:05.000Z,90.80
2022-11-01T02:38:41.769Z,89.06
2022-11-01T02:41:15.048Z,90.40
2022-11-01T02:43:51.655Z,92.59
2022-11-01T02:46:36.261Z,92.40
2022-11-01T02:49:10.448Z,90.95
2022-11-01T02:51:41.417Z,90.03
2022-11-01T02:54:13.474Z,88.61
2022-11-01T02:56:43.636Z,88.65
2022-11-01T02:59:20.788Z,88.30
2022-11-01T03:01:56.154Z,89.41
2022-11-01T03:04:29.130Z,89.77
2022-11-01T03:07:03.623Z,89.54
2022-11-01T03:09:35.954Z,90.25
2022-11-01T03:12:10.000Z,90.24
2022-11-01T03:14:49.401Z,90.29
2022-11-01T03:17:27.297Z,90.30
2022-11-01T03:20:08.465Z,89.75
2022-11-01T03:22:44.076Z,91.09
2022-11-01T03:25:31.575Z,90.12
2022-11-01T03:28:03.821Z,89.77
2022-11-01T03:30:36.274Z,90.40
2022-11-01T03:33:07.568Z,91.55
2022-11-01T03:35:43.750Z,90.64
2022-11-01T03:38:19.192Z,90.71
2022-11-01T03:40:53.495Z,90.17
2022-11-01T03:43:25.689Z,90.00
2022-11-01T03:46:19.448Z,90.44
2022-11-01T03:48:49.151Z,90.46
2022-11-01T03:51:21.798Z,89.98
2022-11-01T03:53:51.564Z,90.74
2022-11-01T03:56:21.855Z,90.73
2022-11-01T03:58:52.064Z,91.01
2022-11-01T04:01:22.325Z,91.56
2022-11-01T04:03:52.891Z,91.68
2022-11-01T04:06:25.744Z,92.62
2022-11-01T04:08:55.823Z,92.60
2022-11-01T04:11:26.976Z,92.96
2022-11-01T04:14:17.048Z,94.11
2022-11-01T04:16:59.649Z,93.82
2022-11-01T04:19:42.342Z,94.24
2022-11-01T04:22:15.851Z,94.47
2022-11-01T04:24:46.923Z,94.79
2022-11-01T04:27:16.920Z,95.82
2022-11-01T04:29:47.030Z,95.76
2022-11-01T04:32:17.124Z,95.48
2022-11-01T04:34:46.823Z,95.31
2022-11-01T04:37:19.511Z,96.20
2022-11-01T04:39:49.260Z,96.71
2022-11-01T04:42:19.277Z,97.21
2022-11-01T04:44:49.569Z,97.56
2022-11-01T04:47:20.081Z,97.70
2022-11-01T04:49:50.309Z,97.62
2022-11-01T04:52:27.480Z,98.36
2022-11-01T04:54:57.538Z,98.13
2022-11-01T04:57:32.736Z,97.34
2022-11-01T05:00:03.455Z,96.72
2022-11-01T05:02:38.395Z,96.18
2022-11-01T05:05:33.234Z,96.56
2022-11-01T05:08:40.799Z,96.27
2022-11-01T05:11:25.810Z,96.52
2022-11-01T05:13:56.578Z,95.47
2022-11-01T05:16:35.580Z,95.86
2022-11-01T05:19:09.191Z,95.53
2022-11-01T05:21:41.843Z,95.27
2022-11-01T05:24:15.171Z,94.76
2022-11-01T05:26:52.828Z,94.19
2022-11-01T05:29:31.358Z,94.52
2022-11-01T05:32:02.387Z,95.27
2022-11-01T05:34:32.493Z,96.50
2022-11-01T05:37:02.207Z,96.19
2022-11-01T05:39:34.791Z,95.97
2022-11-01T05:42:04.524Z,94.86
2022-11-01T05:44:34.581Z,95.36
2022-11-01T05:47:06.148Z,94.32
2022-11-01T05:49:36.232Z,94.75
2022-11-01T05:52:06.110Z,94.51
2022-11-01T05:54:38.761Z,94.63
2022-11-01T05:57:08.654Z,95.45
2022-11-01T05:59:38.727Z,94.91
2022-11-01T06:02:08.771Z,95.47
2022-11-01T06:04:38.757Z,95.26
2022-11-01T06:07:08.568Z,96.04
2022-11-01T06:09:41.218Z,95.54
2022-11-01T06:12:11.020Z,95.36
2022-11-01T06:14:41.060Z,95.68
2022-11-01T06:17:13.359Z,96.04
2022-11-01T06:19:43.383Z,96.13
2022-11-01T06:22:13.129Z,96.74
2022-11-01T06:24:45.862Z,96.46
2022-11-01T06:27:15.661Z,97.49
2022-11-01T06:29:45.749Z,96.47
2022-11-01T06:32:15.548Z,96.45
2022-11-01T06:34:45.819Z,97.31
2022-11-01T06:37:15.957Z,97.07
2022-11-01T06:39:48.729Z,96.62
2022-11-01T06:42:18.600Z,96.78
2022-11-01T06:44:48.894Z,97.09
2022-11-01T06:47:18.715Z,97.00
2022-11-01T06:49:48.794Z,97.18
2022-11-01T06:52:18.591Z,97.45
2022-11-01T06:54:51.693Z,97.33
2022-11-01T06:57:24.492Z,97.13
2022-11-01T07:00:04.068Z,97.00
2022-11-01T07:02:34.177Z,96.88
2022-11-01T07:05:04.669Z,96.16
2022-11-01T07:07:35.629Z,96.59
2022-11-01T07:10:10.346Z,97.25
2022-11-01T07:12:40.052Z,97.40
2022-11-01T07:15:11.237Z,97.35
2022-11-01T07:17:41.130Z,97.78
2022-11-01T07:20:13.176Z,97.04
2022-11-01T07:22:42.892Z,97.27
2022-11-01T07:25:16.177Z,96.93
2022-11-01T07:27:49.956Z,97.34
2022-11-01T07:30:23.905Z,97.97
2022-11-01T07:33:00.456Z,98.30
2022-11-01T07:35:32.905Z,98.61
2022-11-01T07:38:06.594Z,98.43
2022-11-01T07:40:50.351Z,98.11
2022-11-01T07:43:25.230Z,98.01
2022-11-01T07:46:01.337Z,98.60
2022-11-01T07:48:32.010Z,98.21
2022-11-01T07:59:01.495Z,99.26
2022-11-01T08:05:37.376Z,98.73
2022-11-01T08:11:56.709Z,97.79
2022-11-01T08:18:30.321Z,98.15
2022-11-01T08:21:10.065Z,98.22
2022-11-01T08:23:46.079Z,97.14
2022-11-01T08:26:31.018Z,97.44
2022-11-01T08:29:01.294Z,97.07
2022-11-01T08:31:33.078Z,97.51
2022-11-01T08:34:06.182Z,96.44
2022-11-01T08:36:36.526Z,96.44
2022-11-01T08:39:06.919Z,96.00
2022-11-01T08:41:37.468Z,96.28
2022-11-01T08:44:08.243Z,95.32
2022-11-01T08:46:38.131Z,95.59
2022-11-01T08:49:13.055Z,94.73
2022-11-01T08:51:44.881Z,95.33
2022-11-01T08:54:14.916Z,94.36
2022-11-01T08:56:44.662Z,92.54
2022-11-01T08:59:14.993Z,94.09
2022-11-01T09:01:45.166Z,94.62
2022-11-01T09:04:18.285Z,93.45
2022-11-01T09:06:48.415Z,93.98
2022-11-01T09:09:18.966Z,93.32
2022-11-01T09:11:49.395Z,93.05
2022-11-01T09:14:26.227Z,92.50
2022-11-01T09:16:58.678Z,91.81
2022-11-01T09:19:36.568Z,92.10
2022-11-01T09:22:09.546Z,91.49
2022-11-01T09:24:40.797Z,91.54
2022-11-01T09:27:12.428Z,91.91
2022-11-01T09:29:46.496Z,90.69
2022-11-01T09:32:21.913Z,91.33
2022-11-01T09:34:59.475Z,89.98
2022-11-01T09:37:30.512Z,88.12
2022-11-01T09:40:20.660Z,88.58
2022-11-01T09:42:54.115Z,88.01
2022-11-01T09:45:30.220Z,87.47
2022-11-01T09:48:04.306Z,87.64
2022-11-01T09:50:42.317Z,87.54
2022-11-01T09:53:29.064Z,86.63
2022-11-01T09:56:12.541Z,86.80
2022-11-01T09:58:59.492Z,86.29
2022-11-01T10:02:09.583Z,86.38
2022-11-01T10:05:02.229Z,87.31
2022-11-01T10:07:48.361Z,86.99
2022-11-01T10:10:35.789Z,87.23
2022-11-01T10:13:32.298Z,88.00
2022-11-01T10:16:14.013Z,87.82
2022-11-01T10:18:52.266Z,88.23
2022-11-01T10:21:29.884Z,88.00
2022-11-01T10:24:21.713Z,88.16
2022-11-01T10:27:36.158Z,88.30
2022-11-01T10:30:24.361Z,87.78
2022-11-01T10:33:28.814Z,88.29
2022-11-01T10:48:06.992Z,87.40
2022-11-01T10:55:15.775Z,85.70
2022-11-01T10:57:50.931Z,86.25
2022-11-01T11:00:23.769Z,84.82
2022-11-01T11:02:58.677Z,84.48
2022-11-01T11:05:33.050Z,83.52
2022-11-01T11:08:07.446Z,81.47
2022-11-01T11:10:45.007Z,82.11
2022-11-01T11:13:18.189Z,80.46
2022-11-01T11:15:52.523Z,79.90
2022-11-01T11:18:27.749Z,78.81
2022-11-01T11:21:00.432Z,77.77
2022-11-01T11:23:36.821Z,78.38
2022-11-01T11:26:13.636Z,78.80
2022-11-01T11:28:48.164Z,80.14
2022-11-01T11:31:24.311Z,79.24
2022-11-01T11:33:57.196Z,79.87
2022-11-01T11:36:33.768Z,79.84
2022-11-01T11:39:05.442Z,79.88
2022-11-01T11:41:39.801Z,80.40
2022-11-01T11:44:44.680Z,80.18
2022-11-01T11:47:24.581Z,80.85
2022-11-01T11:49:58.086Z,80.84
2022-11-01T11:52:38.395Z,80.59
2022-11-01T11:55:28.837Z,81.30
2022-11-01T11:58:01.856Z,81.74
2022-11-01T12:00:34.332Z,81.84
2022-11-01T12:03:08.145Z,81.92
2022-11-01T12:05:38.462Z,81.95
2022-11-01T12:08:09.450Z,81.56
2022-11-01T12:10:41.629Z,82.76
2022-11-01T12:13:29.029Z,84.08
2022-11-01T12:16:22.307Z,84.08
2022-11-01T12:18:54.979Z,85.04
2022-11-01T12:21:28.973Z,85.08
2022-11-01T12:24:04.034Z,85.57
2022-11-01T12:26:37.463Z,86.46
2022-11-01T12:29:21.009Z,87.49
2022-11-01T12:31:53.264Z,87.48
2022-11-01T12:34:26.806Z,88.18
2022-11-01T12:37:01.953Z,88.08
2022-11-01T12:39:44.006Z,87.65
2022-11-01T12:42:22.590Z,88.63
2022-11-01T12:44:58.807Z,89.02
2022-11-01T12:47:54.821Z,88.56
2022-11-01T12:50:27.562Z,89.06
2022-11-01T12:53:02.141Z,89.40
2022-11-01T12:55:36.598Z,90.32
2022-11-01T12:58:12.851Z,90.62
2022-11-01T13:01:02.804Z,90.36
2022-11-01T13:03:46.910Z,90.10
2022-11-01T13:06:29.323Z,90.04
2022-11-01T13:09:08.090Z,89.84
2022-11-01T13:11:45.459Z,89.71
2022-11-01T13:14:31.691Z,89.10
2022-11-01T13:17:11.384Z,89.43
2022-11-01T13:19:50.282Z,89.77
2022-11-01T13:22:29.478Z,88.08
2022-11-01T13:25:05.053Z,87.65
2022-11-01T13:27:41.138Z,87.21
2022-11-01T13:30:16.071Z,88.00
2022-11-01T13:32:55.587Z,87.40
2022-11-01T13:35:48.475Z,86.48
2022-11-01T13:38:26.358Z,85.69
2022-11-01T13:41:06.559Z,85.62
2022-11-01T13:43:41.760Z,86.10
2022-11-01T13:46:32.017Z,85.96
2022-11-01T13:49:29.242Z,85.42
2022-11-01T13:52:08.166Z,85.45
2022-11-01T13:54:45.361Z,85.31
2022-11-01T13:57:18.906Z,84.84
2022-11-01T13:59:57.050Z,85.10
2022-11-01T14:02:51.117Z,84.54
2022-11-01T14:05:24.197Z,84.59
2022-11-01T14:08:15.014Z,84.49
2022-11-01T14:10:49.896Z,84.92
2022-11-01T14:13:33.205Z,84.55
2022-11-01T14:16:28.232Z,84.58
2022-11-01T14:19:21.045Z,83.61
2022-11-01T14:21:55.812Z,84.14
2022-11-01T14:24:35.544Z,83.94
2022-11-01T14:27:23.327Z,83.78
2022-11-01T14:29:55.636Z,82.85
2022-11-01T14:32:28.433Z,83.33
2022-11-01T14:35:01.976Z,82.90
2022-11-01T14:37:41.162Z,83.48
2022-11-01T14:40:32.768Z,81.76
2022-11-01T14:43:12.765Z,81.99
2022-11-01T14:45:48.347Z,81.83
2022-11-01T14:48:22.005Z,81.42
2022-11-01T14:51:01.129Z,81.46
2022-11-01T14:53:37.384Z,80.97
2022-11-01T14:56:10.001Z,81.99
2022-11-01T14:58:40.474Z,81.59
2022-11-01T15:01:17.274Z,81.97
2022-11-01T15:03:56.283Z,81.92
2022-11-01T15:06:30.306Z,82.04
2022-11-01T15:09:05.193Z,82.18
2022-11-01T15:11:42.784Z,82.91
2022-11-01T15:18:32.541Z,83.16
2022-11-01T15:21:06.349Z,83.36
2022-11-01T15:24:03.152Z,83.42
2022-11-01T15:26:39.797Z,83.98
2022-11-01T15:29:34.675Z,84.49
2022-11-01T15:33:43.098Z,84.01
2022-11-01T15:36:44.963Z,85.04
2022-11-01T15:39:23.745Z,85.05
2022-11-01T15:42:47.822Z,85.53
2022-11-01T15:46:05.228Z,85.96
2022-11-01T15:49:18.740Z,86.24
2022-11-01T15:55:58.334Z,86.14
2022-11-01T15:59:07.166Z,86.71
2022-11-01T16:05:46.357Z,87.28
2022-11-01T16:09:58.913Z,87.12
2022-11-01T16:19:52.726Z,87.38
2022-11-01T16:26:10.778Z,87.01
2022-11-01T16:29:03.136Z,87.59
2022-11-01T16:32:12.487Z,87.42
2022-11-01T16:35:10.831Z,87.27
2022-11-01T16:41:21.309Z,87.66
2022-11-01T16:47:58.495Z,88.46
2022-11-01T16:58:41.412Z,89.05
2022-11-01T17:01:35.862Z,89.61
2022-11-01T17:04:44.499Z,89.73
2022-11-01T17:07:19.041Z,89.55
2022-11-01T17:09:58.941Z,89.55
2022-11-01T17:20:22.951Z,90.64
2022-11-01T17:26:21.718Z,90.00
2022-11-01T17:26:49.173Z,90.52
2022-11-01T17:32:57.055Z,90.89
2022-11-01T17:35:27.483Z,90.82
2022-11-01T17:37:57.915Z,91.73
2022-11-01T17:40:28.318Z,91.55
2022-11-01T17:42:58.650Z,92.57
2022-11-01T17:45:50.834Z,94.00
2022-11-01T17:48:40.559Z,93.46
2022-11-01T17:51:23.924Z,93.36
2022-11-01T17:54:09.803Z,92.88
2022-11-01T17:58:15.859Z,93.35
2022-11-01T18:01:03.711Z,92.76
2022-11-01T18:03:38.232Z,91.88
2022-11-01T18:06:14.406Z,91.72
2022-11-01T18:09:45.537Z,91.43
2022-11-01T18:13:50.062Z,91.58
2022-11-01T18:15:20.003Z,91.57
2022-11-01T18:18:32.497Z,91.27
2022-11-01T18:21:21.993Z,92.03
2022-11-01T18:23:56.987Z,92.97
2022-11-01T18:26:39.239Z,91.98
2022-11-01T18:32:50.364Z,91.50
2022-11-01T18:35:31.645Z,91.42
2022-11-01T18:38:18.697Z,91.05
2022-11-01T18:40:58.358Z,91.36
2022-11-01T18:43:29.829Z,90.41
2022-11-01T18:48:50.310Z,89.86
2022-11-01T18:51:27.897Z,89.09
2022-11-01T18:54:14.257Z,88.80
2022-11-01T18:56:49.326Z,88.67
2022-11-01T18:59:29.357Z,87.82
2022-11-01T19:02:03.127Z,87.91
2022-11-01T19:04:36.246Z,87.92
2022-11-01T19:07:22.986Z,88.16
2022-11-01T19:10:19.708Z,88.51
2022-11-01T19:12:54.891Z,88.58
2022-11-01T19:15:28.202Z,88.32
2022-11-01T19:18:02.817Z,88.42
2022-11-01T19:20:37.227Z,88.98
2022-11-01T19:23:14.141Z,88.90
2022-11-01T19:25:47.202Z,89.06
2022-11-01T19:28:27.221Z,89.14
2022-11-01T19:31:00.354Z,88.36
2022-11-01T19:33:37.295Z,88.49
2022-11-01T19:36:13.732Z,88.04
2022-11-01T19:38:45.172Z,88.46
2022-11-01T19:41:22.295Z,88.41
2022-11-01T19:43:54.729Z,88.86
2022-11-01T19:46:24.828Z,89.99
2022-11-01T19:48:55.821Z,90.90
2022-11-01T19:51:26.697Z,91.95
2022-11-01T19:53:56.509Z,91.68
2022-11-01T19:56:31.528Z,91.45
2022-11-01T19:59:04.000Z,92.88
2022-11-01T20:01:41.859Z,91.50
2022-11-01T20:04:27.759Z,90.57
2022-11-01T20:07:01.421Z,90.75
2022-11-01T20:09:33.445Z,90.77
2022-11-01T20:12:06.467Z,91.24
2022-11-01T20:14:36.467Z,91.11
2022-11-01T20:17:06.807Z,90.68
2022-11-01T20:19:36.725Z,90.27
2022-11-01T20:22:07.008Z,90.61
2022-11-01T20:24:37.067Z,90.84
2022-11-01T20:27:10.117Z,91.31
2022-11-01T20:29:40.153Z,91.27
2022-11-01T20:32:10.922Z,91.58
2022-11-01T20:34:41.223Z,91.56
2022-11-01T20:37:28.824Z,91.64
2022-11-01T20:39:59.347Z,90.97
2022-11-01T20:42:32.299Z,91.34
2022-11-01T20:45:02.382Z,91.35
2022-11-01T20:47:32.891Z,91.40
2022-11-01T20:50:07.144Z,90.78
2022-11-01T20:52:39.965Z,90.90
2022-11-01T20:55:19.431Z,90.05
2022-11-01T20:57:52.632Z,90.03
2022-11-01T21:00:24.582Z,90.67
2022-11-01T21:03:04.399Z,90.14
2022-11-01T21:06:04.045Z,90.70
2022-11-01T21:08:34.366Z,91.35
2022-11-01T21:11:06.019Z,91.12
2022-11-01T21:13:41.570Z,91.21
2022-11-01T21:16:19.449Z,92.23
2022-11-01T21:18:49.594Z,93.03
2022-11-01T21:21:36.115Z,92.27
2022-11-01T21:24:29.000Z,91.36
2022-11-01T21:27:11.018Z,90.96
2022-11-01T21:29:47.649Z,91.48
2022-11-01T21:32:29.787Z,91.44
2022-11-01T21:35:00.583Z,90.63
2022-11-01T21:37:32.666Z,90.03
2022-11-01T21:40:07.551Z,89.22
2022-11-01T21:42:39.051Z,89.09
2022-11-01T21:45:30.904Z,90.00
2022-11-01T21:48:03.976Z,88.88
2022-11-01T21:50:34.254Z,88.54
2022-11-01T21:53:04.224Z,88.88
2022-11-01T21:55:34.796Z,88.72
2022-11-01T21:58:04.600Z,89.62
2022-11-01T22:00:37.265Z,89.24
2022-11-01T22:03:07.393Z,88.91
2022-11-01T22:05:37.953Z,88.52
2022-11-01T22:08:08.064Z,88.64
2022-11-01T22:10:38.604Z,87.96
2022-11-01T22:13:08.854Z,87.71
2022-11-01T22:18:53.777Z,87.61
2022-11-01T22:21:23.837Z,87.26
2022-11-01T22:23:53.565Z,87.55
2022-11-01T22:26:23.760Z,88.68
2022-11-01T22:28:53.707Z,88.69
2022-11-01T22:31:26.915Z,88.53
2022-11-01T22:33:59.010Z,88.48
2022-11-01T22:36:31.118Z,88.80
2022-11-01T22:39:02.837Z,88.30
2022-11-01T22:41:36.097Z,89.68
2022-11-01T22:44:08.203Z,90.25
2022-11-01T22:46:47.176Z,89.57
2022-11-01T22:49:23.116Z,90.03
2022-11-01T22:51:58.652Z,90.38
2022-11-01T22:54:35.568Z,91.16
2022-11-01T22:57:15.067Z,92.15
2022-11-01T22:59:48.264Z,91.66
2022-11-01T23:02:30.493Z,92.23
2022-11-01T23:05:25.172Z,92.93
2022-11-01T23:07:57.388Z,92.42
2022-11-01T23:10:31.845Z,91.74
2022-11-01T23:13:21.709Z,91.64
2022-11-01T23:15:53.686Z,91.83
2022-11-01T23:18:27.842Z,91.17
2022-11-01T23:20:59.936Z,91.61
2022-11-01T23:23:30.698Z,90.66
2022-11-01T23:26:04.898Z,91.85
2022-11-01T23:28:37.121Z,92.07
2022-11-01T23:31:08.026Z,93.25
2022-11-01T23:33:53.517Z,93.21
2022-11-01T23:36:40.294Z,92.54
2022-11-01T23:39:13.781Z,92.09
2022-11-01T23:41:47.015Z,91.33
2022-11-01T23:44:25.046Z,90.73
2022-11-01T23:46:55.556Z,91.14
2022-11-01T23:49:32.299Z,91.18
2022-11-01T23:52:03.238Z,91.66
2022-11-01T23:54:42.230Z,90.97
2022-11-01T23:57:14.551Z,91.16
2022-11-01T23:59:44.711Z,92.37
